sensor_id;sensor_type;location;lat;lon;timestamp;P1;durP1;ratioP1;P2;durP2;ratioP2
34471;SDS011;20710;49.976;19.836;2023-09-19T00:05:57;15.10;;;12.80;;
34471;SDS011;20710;49.976;19.836;2023-09-19T00:12:06;17.50;;;14.50;;
34471;SDS011;20710;49.976;19.836;2023-09-19T01:57:29;20.70;;;16.10;;
34471;SDS011;20710;49.976;19.836;2023-09-19T02:26:18;21.70;;;16.00;;
34471;SDS011;20710;49.976;19.836;2023-09-19T02:39:45;21.40;;;17.50;;
34471;SDS011;20710;49.976;19.836;2023-09-19T03:16:01;23.30;;;18.10;;
34471;SDS011;20710;49.976;19.836;2023-09-19T03:31:07;21.70;;;17.40;;
34471;SDS011;20710;49.976;19.836;2023-09-19T03:44:01;21.00;;;18.10;;
34471;SDS011;20710;49.976;19.836;2023-09-19T05:54:27;30.70;;;22.60;;
34471;SDS011;20710;49.976;19.836;2023-09-19T06:16:22;27.80;;;19.80;;
34471;SDS011;20710;49.976;19.836;2023-09-19T06:30:06;29.60;;;22.60;;
34471;SDS011;20710;49.976;19.836;2023-09-19T06:36:09;29.30;;;23.50;;
34471;SDS011;20710;49.976;19.836;2023-09-19T07:10:20;37.30;;;22.10;;
34471;SDS011;20710;49.976;19.836;2023-09-19T09:35:35;10.20;;;6.40;;
34471;SDS011;20710;49.976;19.836;2023-09-19T09:41:53;13.90;;;6.50;;
34471;SDS011;20710;49.976;19.836;2023-09-19T09:47:58;11.30;;;6.20;;
34471;SDS011;20710;49.976;19.836;2023-09-19T10:02:39;9.20;;;5.60;;
34471;SDS011;20710;49.976;19.836;2023-09-19T10:38:25;7.20;;;5.60;;
34471;SDS011;20710;49.976;19.836;2023-09-19T10:59:32;10.10;;;6.10;;
34471;SDS011;20710;49.976;19.836;2023-09-19T13:30:12;15.20;;;8.00;;
34471;SDS011;20710;49.976;19.836;2023-09-19T14:00:52;10.40;;;6.10;;
34471;SDS011;20710;49.976;19.836;2023-09-19T14:08:07;9.30;;;6.40;;
34471;SDS011;20710;49.976;19.836;2023-09-19T14:21:25;11.10;;;6.90;;
34471;SDS011;20710;49.976;19.836;2023-09-19T14:33:54;10.00;;;6.90;;
34471;SDS011;20710;49.976;19.836;2023-09-19T15:01:07;13.30;;;7.00;;
34471;SDS011;20710;49.976;19.836;2023-09-19T15:08:25;7.70;;;5.70;;
34471;SDS011;20710;49.976;19.836;2023-09-19T15:15:05;8.10;;;6.40;;
34471;SDS011;20710;49.976;19.836;2023-09-19T15:21:28;10.80;;;6.10;;
34471;SDS011;20710;49.976;19.836;2023-09-19T15:28:53;9.80;;;5.40;;
34471;SDS011;20710;49.976;19.836;2023-09-19T16:42:19;10.50;;;5.00;;
34471;SDS011;20710;49.976;19.836;2023-09-19T16:48:56;6.60;;;4.30;;
34471;SDS011;20710;49.976;19.836;2023-09-19T16:54:57;8.90;;;4.80;;
34471;SDS011;20710;49.976;19.836;2023-09-19T17:01:33;8.40;;;4.40;;
34471;SDS011;20710;49.976;19.836;2023-09-19T17:07:36;6.00;;;4.80;;
34471;SDS011;20710;49.976;19.836;2023-09-19T17:14:41;7.10;;;4.60;;
34471;SDS011;20710;49.976;19.836;2023-09-19T17:20:46;8.20;;;4.30;;
34471;SDS011;20710;49.976;19.836;2023-09-19T17:27:28;8.30;;;4.60;;
34471;SDS011;20710;49.976;19.836;2023-09-19T17:33:30;7.10;;;4.40;;
34471;SDS011;20710;49.976;19.836;2023-09-19T17:40:21;6.20;;;4.00;;
34471;SDS011;20710;49.976;19.836;2023-09-19T17:46:23;6.70;;;4.10;;
34471;SDS011;20710;49.976;19.836;2023-09-19T17:52:26;7.00;;;4.30;;
34471;SDS011;20710;49.976;19.836;2023-09-19T17:58:29;7.90;;;4.10;;
34471;SDS011;20710;49.976;19.836;2023-09-19T18:04:31;8.40;;;6.70;;
34471;SDS011;20710;49.976;19.836;2023-09-19T18:10:56;13.80;;;8.60;;
34471;SDS011;20710;49.976;19.836;2023-09-19T18:17:40;8.00;;;7.00;;
34471;SDS011;20710;49.976;19.836;2023-09-19T18:23:51;11.00;;;6.10;;
34471;SDS011;20710;49.976;19.836;2023-09-19T18:29:54;9.20;;;6.10;;
34471;SDS011;20710;49.976;19.836;2023-09-19T18:36:06;8.40;;;5.30;;
34471;SDS011;20710;49.976;19.836;2023-09-19T18:42:18;8.60;;;7.40;;
34471;SDS011;20710;49.976;19.836;2023-09-19T18:48:43;8.90;;;6.10;;
34471;SDS011;20710;49.976;19.836;2023-09-19T18:55:45;6.90;;;5.00;;
34471;SDS011;20710;49.976;19.836;2023-09-19T19:01:48;7.60;;;5.80;;
34471;SDS011;20710;49.976;19.836;2023-09-19T19:08:31;6.70;;;5.30;;
34471;SDS011;20710;49.976;19.836;2023-09-19T19:15:04;7.40;;;5.00;;
34471;SDS011;20710;49.976;19.836;2023-09-19T19:21:06;9.40;;;4.90;;
34471;SDS011;20710;49.976;19.836;2023-09-19T19:27:28;11.30;;;4.90;;
34471;SDS011;20710;49.976;19.836;2023-09-19T19:34:06;5.30;;;4.50;;
34471;SDS011;20710;49.976;19.836;2023-09-19T19:40:29;9.30;;;5.80;;
34471;SDS011;20710;49.976;19.836;2023-09-19T19:47:53;7.40;;;5.40;;
34471;SDS011;20710;49.976;19.836;2023-09-19T19:53:57;5.20;;;4.60;;
34471;SDS011;20710;49.976;19.836;2023-09-19T20:00:02;7.70;;;4.90;;
34471;SDS011;20710;49.976;19.836;2023-09-19T20:07:22;9.90;;;5.20;;
34471;SDS011;20710;49.976;19.836;2023-09-19T20:13:45;6.70;;;5.10;;
34471;SDS011;20710;49.976;19.836;2023-09-19T20:20:28;8.70;;;5.10;;
34471;SDS011;20710;49.976;19.836;2023-09-19T20:26:50;12.10;;;5.60;;
34471;SDS011;20710;49.976;19.836;2023-09-19T20:33:15;7.70;;;5.10;;
34471;SDS011;20710;49.976;19.836;2023-09-19T20:39:40;8.10;;;5.20;;
34471;SDS011;20710;49.976;19.836;2023-09-19T20:46:02;6.40;;;4.90;;
34471;SDS011;20710;49.976;19.836;2023-09-19T20:52:05;10.70;;;6.30;;
34471;SDS011;20710;49.976;19.836;2023-09-19T20:58:28;7.10;;;5.20;;
34471;SDS011;20710;49.976;19.836;2023-09-19T21:05:31;7.90;;;5.10;;
34471;SDS011;20710;49.976;19.836;2023-09-19T21:12:17;4.90;;;4.20;;
34471;SDS011;20710;49.976;19.836;2023-09-19T21:19:07;9.00;;;4.40;;
34471;SDS011;20710;49.976;19.836;2023-09-19T21:25:30;9.70;;;4.30;;
34471;SDS011;20710;49.976;19.836;2023-09-19T21:31:33;10.40;;;4.90;;
34471;SDS011;20710;49.976;19.836;2023-09-19T21:38:17;13.50;;;5.00;;
34471;SDS011;20710;49.976;19.836;2023-09-19T21:44:40;7.50;;;4.30;;
34471;SDS011;20710;49.976;19.836;2023-09-19T21:51:22;7.00;;;4.20;;
34471;SDS011;20710;49.976;19.836;2023-09-19T21:57:44;5.20;;;3.70;;
34471;SDS011;20710;49.976;19.836;2023-09-19T22:04:07;7.70;;;3.10;;
34471;SDS011;20710;49.976;19.836;2023-09-19T22:10:13;8.80;;;3.50;;
34471;SDS011;20710;49.976;19.836;2023-09-19T22:17:01;13.80;;;4.40;;
34471;SDS011;20710;49.976;19.836;2023-09-19T22:23:24;7.10;;;3.90;;
34471;SDS011;20710;49.976;19.836;2023-09-19T22:30:31;5.80;;;4.40;;
34471;SDS011;20710;49.976;19.836;2023-09-19T22:36:48;6.30;;;4.60;;
34471;SDS011;20710;49.976;19.836;2023-09-19T22:43:30;8.70;;;3.50;;
34471;SDS011;20710;49.976;19.836;2023-09-19T22:49:37;6.60;;;3.20;;
34471;SDS011;20710;49.976;19.836;2023-09-19T22:55:59;8.10;;;3.70;;
34471;SDS011;20710;49.976;19.836;2023-09-19T23:02:37;5.90;;;4.10;;
34471;SDS011;20710;49.976;19.836;2023-09-19T23:09:00;8.60;;;4.60;;
34471;SDS011;20710;49.976;19.836;2023-09-19T23:15:02;13.00;;;3.50;;
34471;SDS011;20710;49.976;19.836;2023-09-19T23:21:21;11.60;;;4.00;;
34471;SDS011;20710;49.976;19.836;2023-09-19T23:28:04;6.90;;;4.10;;
34471;SDS011;20710;49.976;19.836;2023-09-19T23:34:06;7.30;;;3.60;;
34471;SDS011;20710;49.976;19.836;2023-09-19T23:40:29;10.80;;;3.60;;
34471;SDS011;20710;49.976;19.836;2023-09-19T23:47:34;6.10;;;3.60;;
34471;SDS011;20710;49.976;19.836;2023-09-19T23:54:17;6.00;;;4.00;;
